Terminal Aerodrome Forecast
Issued by NWS

Home | Current Version | Previous Version | Text Only | Print | Product List | Glossary On
Versions: 1 2 3 4 5 6 7 8 9 10 11 12 13 14
530
FTAK31 PAJN 262322
TAFAPG
TAF
PAPG 262322Z 2700/2724 VRB03KT 6SM -RA BR SCT007 BKN015 OVC025
     FM270600 VRB03KT P6SM VCSH SCT015 OVC030
     FM272000 VRB05KT 4SM -RA BR SCT010 OVC025=

USA.gov is the U.S. government's official web portal to all federal, state and local government web resources and services.